sensor_id;sensor_type;location;lat;lon;timestamp;P1;durP1;ratioP1;P2;durP2;ratioP2
22622;SDS011;11478;51.094;7.030;2024-03-22T00:02:16;30.17;;;14.50;;
22622;SDS011;11478;51.094;7.030;2024-03-22T00:04:42;25.23;;;13.95;;
22622;SDS011;11478;51.094;7.030;2024-03-22T00:07:08;23.80;;;13.43;;
22622;SDS011;11478;51.094;7.030;2024-03-22T00:09:37;23.55;;;13.40;;
22622;SDS011;11478;51.094;7.030;2024-03-22T00:12:03;26.13;;;15.07;;
22622;SDS011;11478;51.094;7.030;2024-03-22T00:14:29;25.60;;;13.82;;
22622;SDS011;11478;51.094;7.030;2024-03-22T00:16:55;24.08;;;14.10;;
22622;SDS011;11478;51.094;7.030;2024-03-22T00:19:35;25.77;;;14.20;;
22622;SDS011;11478;51.094;7.030;2024-03-22T00:22:01;27.98;;;14.35;;
22622;SDS011;11478;51.094;7.030;2024-03-22T00:24:27;24.65;;;14.05;;
22622;SDS011;11478;51.094;7.030;2024-03-22T00:26:53;24.27;;;13.95;;
22622;SDS011;11478;51.094;7.030;2024-03-22T00:31:51;29.15;;;13.88;;
22622;SDS011;11478;51.094;7.030;2024-03-22T00:34:17;29.13;;;14.32;;
22622;SDS011;11478;51.094;7.030;2024-03-22T00:36:44;27.88;;;14.35;;
22622;SDS011;11478;51.094;7.030;2024-03-22T00:39:12;29.15;;;14.15;;
22622;SDS011;11478;51.094;7.030;2024-03-22T00:41:37;28.00;;;15.30;;
22622;SDS011;11478;51.094;7.030;2024-03-22T00:44:04;30.85;;;15.13;;
22622;SDS011;11478;51.094;7.030;2024-03-22T00:46:30;30.92;;;15.02;;
22622;SDS011;11478;51.094;7.030;2024-03-22T00:48:56;26.08;;;14.52;;
22622;SDS011;11478;51.094;7.030;2024-03-22T00:51:40;27.70;;;14.90;;
22622;SDS011;11478;51.094;7.030;2024-03-22T00:54:08;26.75;;;14.98;;
22622;SDS011;11478;51.094;7.030;2024-03-22T00:56:36;25.27;;;14.20;;
22622;SDS011;11478;51.094;7.030;2024-03-22T00:59:02;26.02;;;13.52;;
22622;SDS011;11478;51.094;7.030;2024-03-22T01:01:28;29.08;;;15.02;;
22622;SDS011;11478;51.094;7.030;2024-03-22T01:03:54;25.67;;;14.43;;
22622;SDS011;11478;51.094;7.030;2024-03-22T01:06:20;29.95;;;15.00;;
22622;SDS011;11478;51.094;7.030;2024-03-22T01:08:51;28.17;;;15.40;;
22622;SDS011;11478;51.094;7.030;2024-03-22T01:11:18;33.30;;;15.23;;
22622;SDS011;11478;51.094;7.030;2024-03-22T01:13:44;28.08;;;15.57;;
22622;SDS011;11478;51.094;7.030;2024-03-22T01:18:38;33.40;;;14.65;;
22622;SDS011;11478;51.094;7.030;2024-03-22T01:21:07;29.33;;;15.55;;
22622;SDS011;11478;51.094;7.030;2024-03-22T01:23:33;30.23;;;15.77;;
22622;SDS011;11478;51.094;7.030;2024-03-22T01:25:59;32.55;;;16.17;;
22622;SDS011;11478;51.094;7.030;2024-03-22T01:28:25;30.17;;;15.77;;
22622;SDS011;11478;51.094;7.030;2024-03-22T01:30:52;33.75;;;16.50;;
22622;SDS011;11478;51.094;7.030;2024-03-22T01:33:18;31.10;;;16.02;;
22622;SDS011;11478;51.094;7.030;2024-03-22T01:35:44;32.75;;;16.27;;
22622;SDS011;11478;51.094;7.030;2024-03-22T01:38:10;34.63;;;16.33;;
22622;SDS011;11478;51.094;7.030;2024-03-22T01:40:37;31.17;;;15.27;;
22622;SDS011;11478;51.094;7.030;2024-03-22T01:43:03;29.15;;;15.07;;
22622;SDS011;11478;51.094;7.030;2024-03-22T01:45:32;31.20;;;15.27;;
22622;SDS011;11478;51.094;7.030;2024-03-22T01:47:58;30.13;;;15.38;;
22622;SDS011;11478;51.094;7.030;2024-03-22T01:50:25;30.88;;;15.40;;
22622;SDS011;11478;51.094;7.030;2024-03-22T01:52:53;35.60;;;16.55;;
22622;SDS011;11478;51.094;7.030;2024-03-22T01:55:19;34.30;;;17.25;;
22622;SDS011;11478;51.094;7.030;2024-03-22T01:57:45;30.50;;;15.23;;
22622;SDS011;11478;51.094;7.030;2024-03-22T02:00:12;39.33;;;16.73;;
22622;SDS011;11478;51.094;7.030;2024-03-22T02:02:39;35.92;;;17.40;;
22622;SDS011;11478;51.094;7.030;2024-03-22T02:05:20;36.45;;;17.50;;
22622;SDS011;11478;51.094;7.030;2024-03-22T02:07:47;33.17;;;15.93;;
22622;SDS011;11478;51.094;7.030;2024-03-22T02:10:13;33.03;;;15.57;;
22622;SDS011;11478;51.094;7.030;2024-03-22T02:12:40;33.65;;;16.67;;
22622;SDS011;11478;51.094;7.030;2024-03-22T02:15:07;33.70;;;16.48;;
22622;SDS011;11478;51.094;7.030;2024-03-22T02:17:34;32.05;;;16.10;;
22622;SDS011;11478;51.094;7.030;2024-03-22T02:20:02;31.75;;;16.02;;
22622;SDS011;11478;51.094;7.030;2024-03-22T02:22:31;30.73;;;16.25;;
22622;SDS011;11478;51.094;7.030;2024-03-22T02:24:58;29.48;;;15.38;;
22622;SDS011;11478;51.094;7.030;2024-03-22T02:27:24;30.38;;;15.60;;
22622;SDS011;11478;51.094;7.030;2024-03-22T02:29:59;29.65;;;14.90;;
22622;SDS011;11478;51.094;7.030;2024-03-22T02:37:21;29.33;;;15.57;;
22622;SDS011;11478;51.094;7.030;2024-03-22T02:39:47;32.30;;;15.75;;
22622;SDS011;11478;51.094;7.030;2024-03-22T02:42:13;30.23;;;15.75;;
22622;SDS011;11478;51.094;7.030;2024-03-22T02:44:41;33.60;;;16.00;;
22622;SDS011;11478;51.094;7.030;2024-03-22T02:47:10;31.88;;;15.27;;
22622;SDS011;11478;51.094;7.030;2024-03-22T02:49:37;32.17;;;15.88;;
22622;SDS011;11478;51.094;7.030;2024-03-22T02:52:04;32.20;;;15.07;;
22622;SDS011;11478;51.094;7.030;2024-03-22T02:54:30;30.35;;;14.65;;
22622;SDS011;11478;51.094;7.030;2024-03-22T02:56:56;27.50;;;14.30;;
22622;SDS011;11478;51.094;7.030;2024-03-22T02:59:26;28.83;;;15.73;;
22622;SDS011;11478;51.094;7.030;2024-03-22T03:01:52;27.25;;;13.52;;
22622;SDS011;11478;51.094;7.030;2024-03-22T03:04:19;24.48;;;12.85;;
22622;SDS011;11478;51.094;7.030;2024-03-22T03:06:45;26.70;;;14.10;;
22622;SDS011;11478;51.094;7.030;2024-03-22T03:09:12;28.70;;;13.63;;
22622;SDS011;11478;51.094;7.030;2024-03-22T03:11:39;25.35;;;13.10;;
22622;SDS011;11478;51.094;7.030;2024-03-22T03:14:07;25.75;;;13.45;;
22622;SDS011;11478;51.094;7.030;2024-03-22T03:16:33;28.45;;;14.15;;
22622;SDS011;11478;51.094;7.030;2024-03-22T03:18:59;36.85;;;16.00;;
22622;SDS011;11478;51.094;7.030;2024-03-22T03:21:24;29.45;;;14.52;;
22622;SDS011;11478;51.094;7.030;2024-03-22T03:23:50;28.23;;;13.55;;
22622;SDS011;11478;51.094;7.030;2024-03-22T03:26:17;30.48;;;13.90;;
22622;SDS011;11478;51.094;7.030;2024-03-22T03:28:43;28.80;;;14.50;;
22622;SDS011;11478;51.094;7.030;2024-03-22T03:31:08;31.90;;;13.95;;
22622;SDS011;11478;51.094;7.030;2024-03-22T03:33:38;23.70;;;12.95;;
22622;SDS011;11478;51.094;7.030;2024-03-22T03:36:04;27.63;;;13.57;;
22622;SDS011;11478;51.094;7.030;2024-03-22T03:38:30;27.42;;;13.85;;
22622;SDS011;11478;51.094;7.030;2024-03-22T03:40:56;26.77;;;13.80;;
22622;SDS011;11478;51.094;7.030;2024-03-22T03:43:23;28.55;;;14.05;;
22622;SDS011;11478;51.094;7.030;2024-03-22T03:45:49;29.52;;;14.27;;
22622;SDS011;11478;51.094;7.030;2024-03-22T03:48:15;24.80;;;12.88;;
22622;SDS011;11478;51.094;7.030;2024-03-22T03:50:50;27.70;;;13.70;;
22622;SDS011;11478;51.094;7.030;2024-03-22T03:53:20;24.70;;;12.90;;
22622;SDS011;11478;51.094;7.030;2024-03-22T03:55:46;25.70;;;13.85;;
22622;SDS011;11478;51.094;7.030;2024-03-22T03:58:12;26.50;;;13.55;;
22622;SDS011;11478;51.094;7.030;2024-03-22T04:00:38;26.83;;;13.20;;
22622;SDS011;11478;51.094;7.030;2024-03-22T04:03:05;27.60;;;13.13;;
22622;SDS011;11478;51.094;7.030;2024-03-22T04:05:33;28.02;;;13.57;;
22622;SDS011;11478;51.094;7.030;2024-03-22T04:07:58;24.40;;;12.95;;
22622;SDS011;11478;51.094;7.030;2024-03-22T04:10:25;27.58;;;13.40;;
22622;SDS011;11478;51.094;7.030;2024-03-22T04:12:50;27.92;;;14.45;;
22622;SDS011;11478;51.094;7.030;2024-03-22T04:15:19;27.75;;;13.75;;
22622;SDS011;11478;51.094;7.030;2024-03-22T04:17:44;29.65;;;14.05;;
22622;SDS011;11478;51.094;7.030;2024-03-22T04:20:11;29.00;;;13.43;;
22622;SDS011;11478;51.094;7.030;2024-03-22T04:22:40;26.63;;;13.20;;
22622;SDS011;11478;51.094;7.030;2024-03-22T04:25:06;24.88;;;13.02;;
22622;SDS011;11478;51.094;7.030;2024-03-22T04:27:35;25.73;;;12.95;;
22622;SDS011;11478;51.094;7.030;2024-03-22T04:30:05;26.23;;;12.63;;
22622;SDS011;11478;51.094;7.030;2024-03-22T04:32:31;26.70;;;12.50;;
22622;SDS011;11478;51.094;7.030;2024-03-22T04:35:04;22.95;;;12.23;;
22622;SDS011;11478;51.094;7.030;2024-03-22T04:37:30;24.33;;;12.65;;
22622;SDS011;11478;51.094;7.030;2024-03-22T04:39:56;24.45;;;12.63;;
22622;SDS011;11478;51.094;7.030;2024-03-22T04:42:22;23.98;;;11.98;;
22622;SDS011;11478;51.094;7.030;2024-03-22T04:44:49;30.30;;;13.98;;
22622;SDS011;11478;51.094;7.030;2024-03-22T04:47:14;24.38;;;13.02;;
22622;SDS011;11478;51.094;7.030;2024-03-22T04:49:41;23.80;;;13.35;;
22622;SDS011;11478;51.094;7.030;2024-03-22T04:52:06;25.75;;;12.98;;
22622;SDS011;11478;51.094;7.030;2024-03-22T04:54:32;24.50;;;13.18;;
22622;SDS011;11478;51.094;7.030;2024-03-22T04:56:58;23.65;;;12.77;;
22622;SDS011;11478;51.094;7.030;2024-03-22T04:59:24;27.75;;;12.07;;
22622;SDS011;11478;51.094;7.030;2024-03-22T05:01:50;25.55;;;12.20;;
22622;SDS011;11478;51.094;7.030;2024-03-22T05:04:16;27.30;;;13.40;;
22622;SDS011;11478;51.094;7.030;2024-03-22T05:06:42;28.98;;;13.68;;
22622;SDS011;11478;51.094;7.030;2024-03-22T05:09:08;24.27;;;12.30;;
22622;SDS011;11478;51.094;7.030;2024-03-22T05:11:35;27.08;;;12.30;;
22622;SDS011;11478;51.094;7.030;2024-03-22T05:14:03;27.15;;;12.57;;
22622;SDS011;11478;51.094;7.030;2024-03-22T05:16:29;26.42;;;13.65;;
22622;SDS011;11478;51.094;7.030;2024-03-22T05:18:56;29.73;;;13.60;;
22622;SDS011;11478;51.094;7.030;2024-03-22T05:21:22;24.70;;;12.57;;
22622;SDS011;11478;51.094;7.030;2024-03-22T05:23:49;23.13;;;12.52;;
22622;SDS011;11478;51.094;7.030;2024-03-22T05:26:15;26.05;;;12.50;;
22622;SDS011;11478;51.094;7.030;2024-03-22T05:28:44;26.55;;;12.65;;
22622;SDS011;11478;51.094;7.030;2024-03-22T05:31:10;28.58;;;13.13;;
22622;SDS011;11478;51.094;7.030;2024-03-22T05:33:36;22.40;;;12.68;;
22622;SDS011;11478;51.094;7.030;2024-03-22T05:36:02;26.55;;;12.45;;
22622;SDS011;11478;51.094;7.030;2024-03-22T05:38:29;27.80;;;13.32;;
22622;SDS011;11478;51.094;7.030;2024-03-22T05:40:55;22.63;;;12.35;;
22622;SDS011;11478;51.094;7.030;2024-03-22T05:43:22;25.27;;;11.27;;
22622;SDS011;11478;51.094;7.030;2024-03-22T05:45:48;26.90;;;13.32;;
22622;SDS011;11478;51.094;7.030;2024-03-22T05:48:14;26.23;;;12.68;;
22622;SDS011;11478;51.094;7.030;2024-03-22T05:50:44;26.27;;;13.70;;
22622;SDS011;11478;51.094;7.030;2024-03-22T05:53:10;26.42;;;12.68;;
22622;SDS011;11478;51.094;7.030;2024-03-22T05:55:37;25.25;;;13.30;;
22622;SDS011;11478;51.094;7.030;2024-03-22T05:58:03;26.70;;;12.57;;
22622;SDS011;11478;51.094;7.030;2024-03-22T06:00:29;24.83;;;12.32;;
22622;SDS011;11478;51.094;7.030;2024-03-22T06:02:55;21.17;;;11.75;;
22622;SDS011;11478;51.094;7.030;2024-03-22T06:05:26;26.75;;;12.82;;
22622;SDS011;11478;51.094;7.030;2024-03-22T06:07:52;28.40;;;12.13;;
22622;SDS011;11478;51.094;7.030;2024-03-22T06:10:18;25.70;;;12.63;;
22622;SDS011;11478;51.094;7.030;2024-03-22T06:12:44;23.75;;;12.40;;
22622;SDS011;11478;51.094;7.030;2024-03-22T06:15:20;24.48;;;12.55;;
22622;SDS011;11478;51.094;7.030;2024-03-22T06:17:46;26.95;;;13.13;;
22622;SDS011;11478;51.094;7.030;2024-03-22T06:20:14;24.05;;;12.38;;
22622;SDS011;11478;51.094;7.030;2024-03-22T06:22:40;23.50;;;11.95;;
22622;SDS011;11478;51.094;7.030;2024-03-22T06:25:08;26.13;;;12.52;;
22622;SDS011;11478;51.094;7.030;2024-03-22T06:27:34;23.58;;;12.32;;
22622;SDS011;11478;51.094;7.030;2024-03-22T06:32:30;23.80;;;11.52;;
22622;SDS011;11478;51.094;7.030;2024-03-22T06:34:56;20.02;;;11.10;;
22622;SDS011;11478;51.094;7.030;2024-03-22T06:37:22;24.40;;;11.73;;
22622;SDS011;11478;51.094;7.030;2024-03-22T06:39:54;23.92;;;11.88;;
22622;SDS011;11478;51.094;7.030;2024-03-22T06:42:20;21.55;;;11.07;;
22622;SDS011;11478;51.094;7.030;2024-03-22T06:44:58;22.40;;;11.32;;
22622;SDS011;11478;51.094;7.030;2024-03-22T06:47:24;23.38;;;11.00;;
22622;SDS011;11478;51.094;7.030;2024-03-22T06:49:59;21.80;;;11.13;;
22622;SDS011;11478;51.094;7.030;2024-03-22T06:52:25;18.60;;;10.10;;
22622;SDS011;11478;51.094;7.030;2024-03-22T06:54:51;21.17;;;11.20;;
22622;SDS011;11478;51.094;7.030;2024-03-22T06:57:18;21.85;;;10.45;;
22622;SDS011;11478;51.094;7.030;2024-03-22T06:59:50;22.13;;;11.13;;
22622;SDS011;11478;51.094;7.030;2024-03-22T07:02:16;22.58;;;13.65;;
22622;SDS011;11478;51.094;7.030;2024-03-22T07:04:44;26.85;;;14.10;;
22622;SDS011;11478;51.094;7.030;2024-03-22T07:07:10;30.35;;;14.82;;
22622;SDS011;11478;51.094;7.030;2024-03-22T07:12:06;21.83;;;12.25;;
22622;SDS011;11478;51.094;7.030;2024-03-22T07:14:32;26.70;;;14.77;;
22622;SDS011;11478;51.094;7.030;2024-03-22T07:16:58;32.63;;;19.35;;
22622;SDS011;11478;51.094;7.030;2024-03-22T07:19:25;37.03;;;23.05;;
22622;SDS011;11478;51.094;7.030;2024-03-22T07:21:52;44.45;;;26.75;;
22622;SDS011;11478;51.094;7.030;2024-03-22T07:24:18;33.30;;;19.23;;
22622;SDS011;11478;51.094;7.030;2024-03-22T07:26:44;28.00;;;16.08;;
22622;SDS011;11478;51.094;7.030;2024-03-22T07:29:13;26.48;;;15.25;;
22622;SDS011;11478;51.094;7.030;2024-03-22T07:31:39;27.30;;;14.15;;
22622;SDS011;11478;51.094;7.030;2024-03-22T07:34:05;20.15;;;13.38;;
22622;SDS011;11478;51.094;7.030;2024-03-22T07:36:30;21.67;;;13.77;;
22622;SDS011;11478;51.094;7.030;2024-03-22T07:39:02;23.20;;;13.88;;
22622;SDS011;11478;51.094;7.030;2024-03-22T07:41:35;24.80;;;14.10;;
22622;SDS011;11478;51.094;7.030;2024-03-22T07:44:02;21.83;;;13.35;;
22622;SDS011;11478;51.094;7.030;2024-03-22T07:46:46;20.00;;;12.20;;
22622;SDS011;11478;51.094;7.030;2024-03-22T07:49:12;19.80;;;11.57;;
22622;SDS011;11478;51.094;7.030;2024-03-22T07:51:41;19.15;;;10.40;;
22622;SDS011;11478;51.094;7.030;2024-03-22T07:54:10;19.45;;;10.95;;
22622;SDS011;11478;51.094;7.030;2024-03-22T07:56:46;21.52;;;12.10;;
22622;SDS011;11478;51.094;7.030;2024-03-22T07:59:14;17.50;;;10.52;;
22622;SDS011;11478;51.094;7.030;2024-03-22T08:01:43;14.15;;;10.07;;
22622;SDS011;11478;51.094;7.030;2024-03-22T08:04:19;13.82;;;9.38;;
22622;SDS011;11478;51.094;7.030;2024-03-22T08:06:45;17.73;;;10.50;;
22622;SDS011;11478;51.094;7.030;2024-03-22T08:09:11;23.60;;;16.20;;
22622;SDS011;11478;51.094;7.030;2024-03-22T08:11:43;19.45;;;11.82;;
22622;SDS011;11478;51.094;7.030;2024-03-22T08:14:12;15.57;;;10.75;;
22622;SDS011;11478;51.094;7.030;2024-03-22T08:16:46;20.38;;;11.07;;
22622;SDS011;11478;51.094;7.030;2024-03-22T08:19:12;17.48;;;10.90;;
22622;SDS011;11478;51.094;7.030;2024-03-22T08:21:41;16.40;;;10.25;;
22622;SDS011;11478;51.094;7.030;2024-03-22T08:24:10;22.30;;;11.82;;
22622;SDS011;11478;51.094;7.030;2024-03-22T08:26:46;18.73;;;11.05;;
22622;SDS011;11478;51.094;7.030;2024-03-22T08:29:15;18.88;;;11.25;;
22622;SDS011;11478;51.094;7.030;2024-03-22T08:31:45;19.20;;;11.45;;
22622;SDS011;11478;51.094;7.030;2024-03-22T08:34:14;19.10;;;10.88;;
22622;SDS011;11478;51.094;7.030;2024-03-22T08:36:42;16.75;;;10.63;;
22622;SDS011;11478;51.094;7.030;2024-03-22T08:39:08;17.58;;;11.15;;
22622;SDS011;11478;51.094;7.030;2024-03-22T08:41:43;17.65;;;10.93;;
22622;SDS011;11478;51.094;7.030;2024-03-22T08:46:47;22.25;;;10.98;;
22622;SDS011;11478;51.094;7.030;2024-03-22T08:49:17;23.48;;;9.68;;
22622;SDS011;11478;51.094;7.030;2024-03-22T08:51:49;16.63;;;9.73;;
22622;SDS011;11478;51.094;7.030;2024-03-22T08:54:15;13.15;;;8.52;;
22622;SDS011;11478;51.094;7.030;2024-03-22T08:56:51;14.63;;;9.45;;
22622;SDS011;11478;51.094;7.030;2024-03-22T08:59:20;13.80;;;8.48;;
22622;SDS011;11478;51.094;7.030;2024-03-22T09:01:47;13.25;;;7.93;;
22622;SDS011;11478;51.094;7.030;2024-03-22T09:04:16;14.93;;;9.90;;
22622;SDS011;11478;51.094;7.030;2024-03-22T09:06:51;14.20;;;8.07;;
22622;SDS011;11478;51.094;7.030;2024-03-22T09:09:17;13.35;;;8.25;;
22622;SDS011;11478;51.094;7.030;2024-03-22T09:11:45;11.40;;;7.93;;
22622;SDS011;11478;51.094;7.030;2024-03-22T09:14:13;14.70;;;8.73;;
22622;SDS011;11478;51.094;7.030;2024-03-22T09:16:44;14.63;;;8.48;;
22622;SDS011;11478;51.094;7.030;2024-03-22T09:19:10;13.65;;;8.10;;
22622;SDS011;11478;51.094;7.030;2024-03-22T09:21:50;11.10;;;8.25;;
22622;SDS011;11478;51.094;7.030;2024-03-22T09:24:16;16.38;;;8.65;;
22622;SDS011;11478;51.094;7.030;2024-03-22T09:26:47;11.52;;;8.10;;
22622;SDS011;11478;51.094;7.030;2024-03-22T09:29:13;12.50;;;8.20;;
22622;SDS011;11478;51.094;7.030;2024-03-22T09:31:47;15.55;;;9.38;;
22622;SDS011;11478;51.094;7.030;2024-03-22T09:34:16;13.98;;;8.48;;
22622;SDS011;11478;51.094;7.030;2024-03-22T09:36:45;14.52;;;9.13;;
22622;SDS011;11478;51.094;7.030;2024-03-22T09:39:11;15.68;;;8.63;;
22622;SDS011;11478;51.094;7.030;2024-03-22T09:41:51;13.88;;;7.65;;
22622;SDS011;11478;51.094;7.030;2024-03-22T09:44:18;14.45;;;8.52;;
22622;SDS011;11478;51.094;7.030;2024-03-22T09:46:46;14.00;;;8.50;;
22622;SDS011;11478;51.094;7.030;2024-03-22T09:49:17;17.70;;;8.77;;
22622;SDS011;11478;51.094;7.030;2024-03-22T09:51:44;13.68;;;8.60;;
22622;SDS011;11478;51.094;7.030;2024-03-22T09:54:19;11.90;;;7.90;;
22622;SDS011;11478;51.094;7.030;2024-03-22T09:56:47;12.40;;;8.13;;
22622;SDS011;11478;51.094;7.030;2024-03-22T09:59:15;12.30;;;8.45;;
22622;SDS011;11478;51.094;7.030;2024-03-22T10:01:49;14.52;;;8.30;;
22622;SDS011;11478;51.094;7.030;2024-03-22T10:04:17;12.82;;;7.35;;
22622;SDS011;11478;51.094;7.030;2024-03-22T10:06:46;12.90;;;7.07;;
22622;SDS011;11478;51.094;7.030;2024-03-22T10:09:13;12.43;;;7.07;;
22622;SDS011;11478;51.094;7.030;2024-03-22T10:11:38;11.93;;;8.23;;
22622;SDS011;11478;51.094;7.030;2024-03-22T10:14:04;11.18;;;7.40;;
22622;SDS011;11478;51.094;7.030;2024-03-22T10:16:40;13.57;;;7.65;;
22622;SDS011;11478;51.094;7.030;2024-03-22T10:19:06;11.15;;;8.13;;
22622;SDS011;11478;51.094;7.030;2024-03-22T10:21:33;10.95;;;7.65;;
22622;SDS011;11478;51.094;7.030;2024-03-22T10:23:59;10.93;;;6.80;;
22622;SDS011;11478;51.094;7.030;2024-03-22T10:26:32;12.82;;;7.63;;
22622;SDS011;11478;51.094;7.030;2024-03-22T10:28:58;10.95;;;7.30;;
22622;SDS011;11478;51.094;7.030;2024-03-22T10:31:25;11.95;;;7.30;;
22622;SDS011;11478;51.094;7.030;2024-03-22T10:33:52;14.73;;;7.90;;
22622;SDS011;11478;51.094;7.030;2024-03-22T10:36:20;14.05;;;7.82;;
22622;SDS011;11478;51.094;7.030;2024-03-22T10:38:46;11.45;;;7.57;;
22622;SDS011;11478;51.094;7.030;2024-03-22T10:41:16;11.90;;;7.88;;
22622;SDS011;11478;51.094;7.030;2024-03-22T10:43:42;12.50;;;7.70;;
22622;SDS011;11478;51.094;7.030;2024-03-22T10:46:08;13.35;;;7.60;;
22622;SDS011;11478;51.094;7.030;2024-03-22T10:48:35;15.45;;;8.13;;
22622;SDS011;11478;51.094;7.030;2024-03-22T10:51:02;10.93;;;7.97;;
22622;SDS011;11478;51.094;7.030;2024-03-22T10:53:30;12.02;;;7.97;;
22622;SDS011;11478;51.094;7.030;2024-03-22T10:56:11;12.25;;;7.78;;
22622;SDS011;11478;51.094;7.030;2024-03-22T10:58:41;12.93;;;8.20;;
22622;SDS011;11478;51.094;7.030;2024-03-22T11:01:23;12.55;;;8.88;;
22622;SDS011;11478;51.094;7.030;2024-03-22T11:03:50;13.75;;;8.57;;
22622;SDS011;11478;51.094;7.030;2024-03-22T11:06:36;15.50;;;9.55;;
22622;SDS011;11478;51.094;7.030;2024-03-22T11:09:21;13.55;;;8.93;;
22622;SDS011;11478;51.094;7.030;2024-03-22T11:11:48;13.98;;;8.82;;
22622;SDS011;11478;51.094;7.030;2024-03-22T11:16:50;15.77;;;9.45;;
22622;SDS011;11478;51.094;7.030;2024-03-22T11:19:18;15.23;;;9.63;;
22622;SDS011;11478;51.094;7.030;2024-03-22T11:21:44;19.45;;;10.15;;
22622;SDS011;11478;51.094;7.030;2024-03-22T11:24:11;19.17;;;10.50;;
22622;SDS011;11478;51.094;7.030;2024-03-22T11:26:37;15.10;;;10.15;;
22622;SDS011;11478;51.094;7.030;2024-03-22T11:29:05;14.98;;;10.00;;
22622;SDS011;11478;51.094;7.030;2024-03-22T11:31:31;16.02;;;9.93;;
22622;SDS011;11478;51.094;7.030;2024-03-22T11:33:59;17.13;;;10.60;;
22622;SDS011;11478;51.094;7.030;2024-03-22T11:36:25;15.65;;;10.60;;
22622;SDS011;11478;51.094;7.030;2024-03-22T11:38:53;19.23;;;11.50;;
22622;SDS011;11478;51.094;7.030;2024-03-22T11:41:20;17.48;;;11.55;;
22622;SDS011;11478;51.094;7.030;2024-03-22T11:43:55;16.48;;;10.18;;
22622;SDS011;11478;51.094;7.030;2024-03-22T11:46:23;16.88;;;10.30;;
22622;SDS011;11478;51.094;7.030;2024-03-22T11:48:53;17.63;;;10.88;;
22622;SDS011;11478;51.094;7.030;2024-03-22T11:51:19;16.95;;;10.88;;
22622;SDS011;11478;51.094;7.030;2024-03-22T11:53:49;17.77;;;11.15;;
22622;SDS011;11478;51.094;7.030;2024-03-22T11:56:17;18.95;;;10.45;;
22622;SDS011;11478;51.094;7.030;2024-03-22T11:58:45;16.38;;;10.80;;
22622;SDS011;11478;51.094;7.030;2024-03-22T12:01:12;17.38;;;11.27;;
22622;SDS011;11478;51.094;7.030;2024-03-22T12:03:46;25.02;;;10.35;;
22622;SDS011;11478;51.094;7.030;2024-03-22T12:06:19;16.23;;;10.27;;
22622;SDS011;11478;51.094;7.030;2024-03-22T12:08:46;15.38;;;9.77;;
22622;SDS011;11478;51.094;7.030;2024-03-22T12:11:12;15.48;;;9.50;;
22622;SDS011;11478;51.094;7.030;2024-03-22T12:13:39;15.88;;;9.32;;
22622;SDS011;11478;51.094;7.030;2024-03-22T12:16:06;16.77;;;9.55;;
22622;SDS011;11478;51.094;7.030;2024-03-22T12:18:32;12.27;;;8.30;;
22622;SDS011;11478;51.094;7.030;2024-03-22T12:21:00;14.57;;;9.63;;
22622;SDS011;11478;51.094;7.030;2024-03-22T12:23:26;15.65;;;8.77;;
22622;SDS011;11478;51.094;7.030;2024-03-22T12:25:58;15.98;;;10.02;;
22622;SDS011;11478;51.094;7.030;2024-03-22T12:28:24;13.13;;;9.18;;
22622;SDS011;11478;51.094;7.030;2024-03-22T12:31:00;17.05;;;9.68;;
22622;SDS011;11478;51.094;7.030;2024-03-22T12:33:26;17.70;;;9.88;;
22622;SDS011;11478;51.094;7.030;2024-03-22T12:35:53;15.48;;;9.77;;
22622;SDS011;11478;51.094;7.030;2024-03-22T12:38:19;18.92;;;10.90;;
22622;SDS011;11478;51.094;7.030;2024-03-22T12:40:47;18.20;;;10.98;;
22622;SDS011;11478;51.094;7.030;2024-03-22T12:43:15;17.23;;;10.60;;
22622;SDS011;11478;51.094;7.030;2024-03-22T12:45:44;17.42;;;10.70;;
22622;SDS011;11478;51.094;7.030;2024-03-22T12:48:11;16.40;;;10.10;;
22622;SDS011;11478;51.094;7.030;2024-03-22T12:50:43;18.17;;;10.73;;
22622;SDS011;11478;51.094;7.030;2024-03-22T12:53:36;16.10;;;10.52;;
22622;SDS011;11478;51.094;7.030;2024-03-22T12:58:37;16.52;;;9.55;;
22622;SDS011;11478;51.094;7.030;2024-03-22T13:03:36;14.88;;;9.38;;
22622;SDS011;11478;51.094;7.030;2024-03-22T13:06:09;12.77;;;9.00;;
22622;SDS011;11478;51.094;7.030;2024-03-22T13:08:35;17.23;;;9.75;;
22622;SDS011;11478;51.094;7.030;2024-03-22T13:11:01;15.95;;;11.38;;
22622;SDS011;11478;51.094;7.030;2024-03-22T13:13:30;17.90;;;10.63;;
22622;SDS011;11478;51.094;7.030;2024-03-22T13:16:07;18.25;;;10.73;;
22622;SDS011;11478;51.094;7.030;2024-03-22T13:18:34;16.15;;;10.13;;
22622;SDS011;11478;51.094;7.030;2024-03-22T13:21:01;17.73;;;10.00;;
22622;SDS011;11478;51.094;7.030;2024-03-22T13:23:33;21.27;;;11.77;;
22622;SDS011;11478;51.094;7.030;2024-03-22T13:26:07;18.33;;;12.65;;
22622;SDS011;11478;51.094;7.030;2024-03-22T13:28:32;16.92;;;11.13;;
22622;SDS011;11478;51.094;7.030;2024-03-22T13:31:02;19.30;;;12.00;;
22622;SDS011;11478;51.094;7.030;2024-03-22T13:33:31;19.05;;;12.15;;
22622;SDS011;11478;51.094;7.030;2024-03-22T13:36:03;18.42;;;12.65;;
22622;SDS011;11478;51.094;7.030;2024-03-22T13:38:36;22.83;;;12.27;;
22622;SDS011;11478;51.094;7.030;2024-03-22T13:41:04;16.70;;;11.43;;
22622;SDS011;11478;51.094;7.030;2024-03-22T13:43:31;20.15;;;12.13;;
22622;SDS011;11478;51.094;7.030;2024-03-22T13:46:03;15.70;;;10.07;;
22622;SDS011;11478;51.094;7.030;2024-03-22T13:48:33;16.08;;;10.02;;
22622;SDS011;11478;51.094;7.030;2024-03-22T13:51:02;15.70;;;9.80;;
22622;SDS011;11478;51.094;7.030;2024-03-22T13:53:36;12.70;;;8.95;;
22622;SDS011;11478;51.094;7.030;2024-03-22T13:56:04;12.40;;;8.77;;
22622;SDS011;11478;51.094;7.030;2024-03-22T13:58:33;13.38;;;9.40;;
22622;SDS011;11478;51.094;7.030;2024-03-22T14:01:02;13.13;;;8.45;;
22622;SDS011;11478;51.094;7.030;2024-03-22T14:03:32;14.57;;;8.30;;
22622;SDS011;11478;51.094;7.030;2024-03-22T14:06:01;12.50;;;8.07;;
22622;SDS011;11478;51.094;7.030;2024-03-22T14:08:33;14.15;;;8.95;;
22622;SDS011;11478;51.094;7.030;2024-03-22T14:11:02;12.52;;;8.63;;
22622;SDS011;11478;51.094;7.030;2024-03-22T14:13:32;11.13;;;8.38;;
22622;SDS011;11478;51.094;7.030;2024-03-22T14:15:58;14.60;;;8.80;;
22622;SDS011;11478;51.094;7.030;2024-03-22T14:18:31;14.43;;;8.98;;
22622;SDS011;11478;51.094;7.030;2024-03-22T14:20:57;16.58;;;9.85;;
22622;SDS011;11478;51.094;7.030;2024-03-22T14:23:33;19.42;;;10.55;;
22622;SDS011;11478;51.094;7.030;2024-03-22T14:26:02;13.80;;;9.07;;
22622;SDS011;11478;51.094;7.030;2024-03-22T14:28:35;17.95;;;9.55;;
22622;SDS011;11478;51.094;7.030;2024-03-22T14:33:52;16.08;;;9.13;;
22622;SDS011;11478;51.094;7.030;2024-03-22T14:36:24;18.33;;;9.80;;
22622;SDS011;11478;51.094;7.030;2024-03-22T14:38:50;16.35;;;9.70;;
22622;SDS011;11478;51.094;7.030;2024-03-22T14:44:02;16.73;;;9.23;;
22622;SDS011;11478;51.094;7.030;2024-03-22T14:46:33;19.42;;;10.15;;
22622;SDS011;11478;51.094;7.030;2024-03-22T14:49:02;16.52;;;9.98;;
22622;SDS011;11478;51.094;7.030;2024-03-22T14:51:34;17.45;;;11.27;;
22622;SDS011;11478;51.094;7.030;2024-03-22T14:54:09;18.05;;;9.65;;
22622;SDS011;11478;51.094;7.030;2024-03-22T14:56:39;19.00;;;9.88;;
22622;SDS011;11478;51.094;7.030;2024-03-22T14:59:06;16.95;;;10.43;;
22622;SDS011;11478;51.094;7.030;2024-03-22T15:01:35;15.95;;;9.77;;
22622;SDS011;11478;51.094;7.030;2024-03-22T15:04:12;16.25;;;10.30;;